sensor_id;sensor_type;location;lat;lon;timestamp;temperature;humidity
33793;DHT22;20105;48.764;9.178;2022-10-20T00:01:02;11.10;99.40
33793;DHT22;20105;48.764;9.178;2022-10-20T00:03:28;11.00;99.40
33793;DHT22;20105;48.764;9.178;2022-10-20T00:05:54;11.00;99.50
33793;DHT22;20105;48.764;9.178;2022-10-20T00:08:29;11.00;99.30
33793;DHT22;20105;48.764;9.178;2022-10-20T00:10:55;11.00;98.10
33793;DHT22;20105;48.764;9.178;2022-10-20T00:13:22;11.00;98.30
33793;DHT22;20105;48.764;9.178;2022-10-20T00:15:52;10.90;98.30
33793;DHT22;20105;48.764;9.178;2022-10-20T00:18:18;10.90;98.20
33793;DHT22;20105;48.764;9.178;2022-10-20T00:20:43;11.00;98.10
33793;DHT22;20105;48.764;9.178;2022-10-20T00:23:09;10.90;98.30
33793;DHT22;20105;48.764;9.178;2022-10-20T00:25:34;10.90;98.30
33793;DHT22;20105;48.764;9.178;2022-10-20T00:28:00;10.90;98.20
33793;DHT22;20105;48.764;9.178;2022-10-20T00:30:26;10.90;98.20
33793;DHT22;20105;48.764;9.178;2022-10-20T00:32:51;10.80;97.50
33793;DHT22;20105;48.764;9.178;2022-10-20T00:35:17;10.80;97.40
33793;DHT22;20105;48.764;9.178;2022-10-20T00:37:42;10.80;97.50
33793;DHT22;20105;48.764;9.178;2022-10-20T00:40:08;10.80;97.50
33793;DHT22;20105;48.764;9.178;2022-10-20T00:42:34;10.80;97.30
33793;DHT22;20105;48.764;9.178;2022-10-20T00:45:00;10.80;97.30
33793;DHT22;20105;48.764;9.178;2022-10-20T00:47:39;10.80;97.60
33793;DHT22;20105;48.764;9.178;2022-10-20T00:50:11;10.80;98.00
33793;DHT22;20105;48.764;9.178;2022-10-20T00:52:38;10.80;98.00
33793;DHT22;20105;48.764;9.178;2022-10-20T00:55:07;10.80;98.50
33793;DHT22;20105;48.764;9.178;2022-10-20T00:57:33;10.80;98.10
33793;DHT22;20105;48.764;9.178;2022-10-20T00:59:59;10.80;97.60
33793;DHT22;20105;48.764;9.178;2022-10-20T01:02:25;10.80;97.10
33793;DHT22;20105;48.764;9.178;2022-10-20T01:04:51;10.80;97.50
33793;DHT22;20105;48.764;9.178;2022-10-20T01:07:17;10.70;97.30
33793;DHT22;20105;48.764;9.178;2022-10-20T01:09:42;10.70;96.90
33793;DHT22;20105;48.764;9.178;2022-10-20T01:14:49;10.70;96.90
33793;DHT22;20105;48.764;9.178;2022-10-20T01:17:34;10.60;96.50
33793;DHT22;20105;48.764;9.178;2022-10-20T01:20:28;10.60;96.30
33793;DHT22;20105;48.764;9.178;2022-10-20T01:28:42;10.60;95.20
33793;DHT22;20105;48.764;9.178;2022-10-20T01:34:07;10.60;95.60
33793;DHT22;20105;48.764;9.178;2022-10-20T01:36:50;10.60;95.60
33793;DHT22;20105;48.764;9.178;2022-10-20T01:39:48;10.60;95.50
33793;DHT22;20105;48.764;9.178;2022-10-20T01:42:21;10.50;95.60
33793;DHT22;20105;48.764;9.178;2022-10-20T01:44:48;10.50;95.90
33793;DHT22;20105;48.764;9.178;2022-10-20T01:47:15;10.50;95.70
33793;DHT22;20105;48.764;9.178;2022-10-20T01:49:46;10.50;95.90
33793;DHT22;20105;48.764;9.178;2022-10-20T01:52:12;10.50;95.80
33793;DHT22;20105;48.764;9.178;2022-10-20T01:54:38;10.50;95.50
33793;DHT22;20105;48.764;9.178;2022-10-20T01:57:19;10.50;95.80
33793;DHT22;20105;48.764;9.178;2022-10-20T02:00:03;10.40;95.80
33793;DHT22;20105;48.764;9.178;2022-10-20T02:02:42;10.40;95.40
33793;DHT22;20105;48.764;9.178;2022-10-20T02:07:42;10.40;94.90
33793;DHT22;20105;48.764;9.178;2022-10-20T02:10:21;10.40;94.00
33793;DHT22;20105;48.764;9.178;2022-10-20T02:12:53;10.40;94.50
33793;DHT22;20105;48.764;9.178;2022-10-20T02:15:23;10.40;94.50
33793;DHT22;20105;48.764;9.178;2022-10-20T02:17:52;10.40;94.40
33793;DHT22;20105;48.764;9.178;2022-10-20T02:20:19;10.40;94.00
33793;DHT22;20105;48.764;9.178;2022-10-20T02:22:45;10.40;94.00
33793;DHT22;20105;48.764;9.178;2022-10-20T02:25:12;10.40;94.00
33793;DHT22;20105;48.764;9.178;2022-10-20T02:27:41;10.40;94.20
33793;DHT22;20105;48.764;9.178;2022-10-20T02:30:10;10.40;94.60
33793;DHT22;20105;48.764;9.178;2022-10-20T02:32:39;10.40;94.40
33793;DHT22;20105;48.764;9.178;2022-10-20T02:35:11;10.40;94.10
33793;DHT22;20105;48.764;9.178;2022-10-20T02:37:38;10.40;94.00
33793;DHT22;20105;48.764;9.178;2022-10-20T02:40:04;10.40;94.10
33793;DHT22;20105;48.764;9.178;2022-10-20T02:42:30;10.40;94.00
33793;DHT22;20105;48.764;9.178;2022-10-20T02:44:55;10.40;93.60
33793;DHT22;20105;48.764;9.178;2022-10-20T02:47:21;10.40;93.10
33793;DHT22;20105;48.764;9.178;2022-10-20T02:49:47;10.40;92.80
33793;DHT22;20105;48.764;9.178;2022-10-20T02:52:13;10.50;92.00
33793;DHT22;20105;48.764;9.178;2022-10-20T02:54:38;10.50;92.10
33793;DHT22;20105;48.764;9.178;2022-10-20T02:57:04;10.60;93.40
33793;DHT22;20105;48.764;9.178;2022-10-20T02:59:29;10.50;93.30
33793;DHT22;20105;48.764;9.178;2022-10-20T03:01:55;10.50;92.40
33793;DHT22;20105;48.764;9.178;2022-10-20T03:04:21;10.50;92.10
33793;DHT22;20105;48.764;9.178;2022-10-20T03:06:46;10.60;91.60
33793;DHT22;20105;48.764;9.178;2022-10-20T03:09:12;10.60;91.70
33793;DHT22;20105;48.764;9.178;2022-10-20T03:11:37;10.60;91.60
33793;DHT22;20105;48.764;9.178;2022-10-20T03:14:03;10.70;90.90
33793;DHT22;20105;48.764;9.178;2022-10-20T03:16:28;10.70;91.90
33793;DHT22;20105;48.764;9.178;2022-10-20T03:18:54;10.70;91.90
33793;DHT22;20105;48.764;9.178;2022-10-20T03:21:20;10.70;92.00
33793;DHT22;20105;48.764;9.178;2022-10-20T03:23:47;10.70;91.80
33793;DHT22;20105;48.764;9.178;2022-10-20T03:26:12;10.70;92.80
33793;DHT22;20105;48.764;9.178;2022-10-20T03:28:39;10.70;92.00
33793;DHT22;20105;48.764;9.178;2022-10-20T03:31:05;10.70;91.90
33793;DHT22;20105;48.764;9.178;2022-10-20T03:33:31;10.70;90.90
33793;DHT22;20105;48.764;9.178;2022-10-20T03:35:56;10.80;90.00
33793;DHT22;20105;48.764;9.178;2022-10-20T03:38:22;10.80;89.50
33793;DHT22;20105;48.764;9.178;2022-10-20T03:40:48;10.90;89.40
33793;DHT22;20105;48.764;9.178;2022-10-20T03:43:14;10.90;89.20
33793;DHT22;20105;48.764;9.178;2022-10-20T03:45:41;11.00;89.00
33793;DHT22;20105;48.764;9.178;2022-10-20T03:48:07;11.00;88.80
33793;DHT22;20105;48.764;9.178;2022-10-20T03:50:32;11.10;88.10
33793;DHT22;20105;48.764;9.178;2022-10-20T03:52:58;11.20;87.80
33793;DHT22;20105;48.764;9.178;2022-10-20T03:55:24;11.20;88.20
33793;DHT22;20105;48.764;9.178;2022-10-20T03:57:52;11.20;88.90
33793;DHT22;20105;48.764;9.178;2022-10-20T04:00:18;11.20;90.80
33793;DHT22;20105;48.764;9.178;2022-10-20T04:02:46;11.20;90.80
33793;DHT22;20105;48.764;9.178;2022-10-20T04:05:16;11.20;93.30
33793;DHT22;20105;48.764;9.178;2022-10-20T04:07:43;11.10;94.80
33793;DHT22;20105;48.764;9.178;2022-10-20T04:10:10;11.10;93.90
33793;DHT22;20105;48.764;9.178;2022-10-20T04:12:36;11.10;93.60
33793;DHT22;20105;48.764;9.178;2022-10-20T04:15:03;11.20;93.50
33793;DHT22;20105;48.764;9.178;2022-10-20T04:17:29;11.20;93.70
33793;DHT22;20105;48.764;9.178;2022-10-20T04:19:54;11.20;94.20
33793;DHT22;20105;48.764;9.178;2022-10-20T04:22:20;11.20;94.30
33793;DHT22;20105;48.764;9.178;2022-10-20T04:24:45;11.20;94.20
33793;DHT22;20105;48.764;9.178;2022-10-20T04:27:11;11.30;94.20
33793;DHT22;20105;48.764;9.178;2022-10-20T04:29:36;11.30;95.30
33793;DHT22;20105;48.764;9.178;2022-10-20T04:32:02;11.30;95.80
33793;DHT22;20105;48.764;9.178;2022-10-20T04:34:28;11.30;99.60
33793;DHT22;20105;48.764;9.178;2022-10-20T04:36:53;11.30;98.90
33793;DHT22;20105;48.764;9.178;2022-10-20T04:39:19;11.30;99.20
33793;DHT22;20105;48.764;9.178;2022-10-20T04:41:44;11.40;99.90
33793;DHT22;20105;48.764;9.178;2022-10-20T04:44:10;11.40;99.90
33793;DHT22;20105;48.764;9.178;2022-10-20T04:46:36;11.30;99.90
33793;DHT22;20105;48.764;9.178;2022-10-20T04:49:01;11.20;99.90
33793;DHT22;20105;48.764;9.178;2022-10-20T04:51:28;11.20;99.90
33793;DHT22;20105;48.764;9.178;2022-10-20T04:53:53;11.20;99.90
33793;DHT22;20105;48.764;9.178;2022-10-20T04:56:20;11.10;99.90
33793;DHT22;20105;48.764;9.178;2022-10-20T04:58:47;11.20;99.90
33793;DHT22;20105;48.764;9.178;2022-10-20T05:01:13;11.20;99.90
33793;DHT22;20105;48.764;9.178;2022-10-20T05:03:38;11.10;99.90
33793;DHT22;20105;48.764;9.178;2022-10-20T05:06:28;11.10;99.90
33793;DHT22;20105;48.764;9.178;2022-10-20T05:08:56;11.00;99.90
33793;DHT22;20105;48.764;9.178;2022-10-20T05:11:24;11.00;99.90
33793;DHT22;20105;48.764;9.178;2022-10-20T05:13:50;11.10;99.90
33793;DHT22;20105;48.764;9.178;2022-10-20T05:16:16;11.00;99.90
33793;DHT22;20105;48.764;9.178;2022-10-20T05:18:43;11.00;99.90
33793;DHT22;20105;48.764;9.178;2022-10-20T05:21:12;11.00;99.90
33793;DHT22;20105;48.764;9.178;2022-10-20T05:23:38;11.00;99.90
33793;DHT22;20105;48.764;9.178;2022-10-20T05:26:06;11.10;99.90
33793;DHT22;20105;48.764;9.178;2022-10-20T05:28:33;11.00;99.90
33793;DHT22;20105;48.764;9.178;2022-10-20T05:31:04;11.00;99.90
33793;DHT22;20105;48.764;9.178;2022-10-20T05:33:30;11.00;99.90
33793;DHT22;20105;48.764;9.178;2022-10-20T05:35:56;11.00;99.90
33793;DHT22;20105;48.764;9.178;2022-10-20T05:38:22;11.00;99.90
33793;DHT22;20105;48.764;9.178;2022-10-20T05:40:47;11.00;99.90
33793;DHT22;20105;48.764;9.178;2022-10-20T05:43:13;11.00;99.90
33793;DHT22;20105;48.764;9.178;2022-10-20T05:45:38;11.00;99.90
33793;DHT22;20105;48.764;9.178;2022-10-20T05:48:04;11.00;99.90
33793;DHT22;20105;48.764;9.178;2022-10-20T05:50:30;11.00;99.90
33793;DHT22;20105;48.764;9.178;2022-10-20T05:52:56;11.00;99.90
33793;DHT22;20105;48.764;9.178;2022-10-20T05:55:22;11.00;99.90
33793;DHT22;20105;48.764;9.178;2022-10-20T05:57:51;11.00;99.90
33793;DHT22;20105;48.764;9.178;2022-10-20T06:00:17;11.00;99.90
33793;DHT22;20105;48.764;9.178;2022-10-20T06:02:47;11.00;99.90
33793;DHT22;20105;48.764;9.178;2022-10-20T06:05:13;11.00;99.90
33793;DHT22;20105;48.764;9.178;2022-10-20T06:07:39;11.00;99.90
33793;DHT22;20105;48.764;9.178;2022-10-20T06:10:04;11.00;99.90
33793;DHT22;20105;48.764;9.178;2022-10-20T06:12:30;11.10;99.90
33793;DHT22;20105;48.764;9.178;2022-10-20T06:14:55;11.10;99.90
33793;DHT22;20105;48.764;9.178;2022-10-20T06:17:21;11.10;99.90
33793;DHT22;20105;48.764;9.178;2022-10-20T06:19:46;11.20;99.90
33793;DHT22;20105;48.764;9.178;2022-10-20T06:22:12;11.20;99.90
33793;DHT22;20105;48.764;9.178;2022-10-20T06:24:38;11.20;99.90
33793;DHT22;20105;48.764;9.178;2022-10-20T06:27:03;11.20;99.90
33793;DHT22;20105;48.764;9.178;2022-10-20T06:29:29;11.20;99.90
33793;DHT22;20105;48.764;9.178;2022-10-20T06:31:54;11.20;99.90
33793;DHT22;20105;48.764;9.178;2022-10-20T06:34:23;11.30;99.90
33793;DHT22;20105;48.764;9.178;2022-10-20T06:36:50;11.30;99.90
33793;DHT22;20105;48.764;9.178;2022-10-20T06:39:18;11.30;99.90
33793;DHT22;20105;48.764;9.178;2022-10-20T06:41:48;11.40;99.90
33793;DHT22;20105;48.764;9.178;2022-10-20T06:44:18;11.40;99.90
33793;DHT22;20105;48.764;9.178;2022-10-20T06:46:44;11.40;99.90
33793;DHT22;20105;48.764;9.178;2022-10-20T06:49:10;11.40;99.90
33793;DHT22;20105;48.764;9.178;2022-10-20T06:51:36;11.40;99.90
33793;DHT22;20105;48.764;9.178;2022-10-20T06:54:02;11.50;99.90
33793;DHT22;20105;48.764;9.178;2022-10-20T06:56:30;11.50;99.90
33793;DHT22;20105;48.764;9.178;2022-10-20T06:58:58;11.50;99.90
33793;DHT22;20105;48.764;9.178;2022-10-20T07:01:24;11.60;99.90
33793;DHT22;20105;48.764;9.178;2022-10-20T07:03:52;11.60;99.90
33793;DHT22;20105;48.764;9.178;2022-10-20T07:06:24;11.70;99.90
33793;DHT22;20105;48.764;9.178;2022-10-20T07:08:51;11.70;99.90
33793;DHT22;20105;48.764;9.178;2022-10-20T07:11:19;11.70;99.90
33793;DHT22;20105;48.764;9.178;2022-10-20T07:13:45;11.80;99.90
33793;DHT22;20105;48.764;9.178;2022-10-20T07:16:15;11.90;99.90
33793;DHT22;20105;48.764;9.178;2022-10-20T07:18:41;12.00;99.90
33793;DHT22;20105;48.764;9.178;2022-10-20T07:21:10;12.00;99.90
33793;DHT22;20105;48.764;9.178;2022-10-20T07:23:36;12.00;99.90
33793;DHT22;20105;48.764;9.178;2022-10-20T07:26:16;12.00;99.90
33793;DHT22;20105;48.764;9.178;2022-10-20T07:28:44;12.10;99.90
33793;DHT22;20105;48.764;9.178;2022-10-20T07:31:13;12.10;99.90
33793;DHT22;20105;48.764;9.178;2022-10-20T07:33:39;12.20;99.90
33793;DHT22;20105;48.764;9.178;2022-10-20T07:36:12;12.20;99.90
33793;DHT22;20105;48.764;9.178;2022-10-20T07:38:38;12.30;99.90
33793;DHT22;20105;48.764;9.178;2022-10-20T07:41:03;12.30;99.90
33793;DHT22;20105;48.764;9.178;2022-10-20T07:43:29;12.40;99.90
33793;DHT22;20105;48.764;9.178;2022-10-20T07:45:55;12.50;99.90
33793;DHT22;20105;48.764;9.178;2022-10-20T07:48:20;12.50;99.90
33793;DHT22;20105;48.764;9.178;2022-10-20T07:53:12;12.70;99.90
33793;DHT22;20105;48.764;9.178;2022-10-20T07:55:37;12.80;99.90
33793;DHT22;20105;48.764;9.178;2022-10-20T07:58:03;12.80;99.90
33793;DHT22;20105;48.764;9.178;2022-10-20T08:00:28;12.90;99.90
33793;DHT22;20105;48.764;9.178;2022-10-20T08:02:54;13.00;99.90
33793;DHT22;20105;48.764;9.178;2022-10-20T08:05:19;13.20;99.90
33793;DHT22;20105;48.764;9.178;2022-10-20T08:07:45;13.20;99.90
33793;DHT22;20105;48.764;9.178;2022-10-20T08:10:10;13.20;99.90
33793;DHT22;20105;48.764;9.178;2022-10-20T08:12:36;13.20;99.90
33793;DHT22;20105;48.764;9.178;2022-10-20T08:15:03;13.30;99.90
33793;DHT22;20105;48.764;9.178;2022-10-20T08:17:29;13.20;99.90
33793;DHT22;20105;48.764;9.178;2022-10-20T08:19:54;13.40;99.90
33793;DHT22;20105;48.764;9.178;2022-10-20T08:22:20;13.50;99.90
33793;DHT22;20105;48.764;9.178;2022-10-20T08:24:46;13.60;99.90
33793;DHT22;20105;48.764;9.178;2022-10-20T08:27:12;13.80;99.90
33793;DHT22;20105;48.764;9.178;2022-10-20T08:29:37;13.90;99.90
33793;DHT22;20105;48.764;9.178;2022-10-20T08:32:03;14.00;99.90
33793;DHT22;20105;48.764;9.178;2022-10-20T08:34:29;14.10;99.90
33793;DHT22;20105;48.764;9.178;2022-10-20T08:36:55;14.20;99.90
33793;DHT22;20105;48.764;9.178;2022-10-20T08:39:20;14.30;99.90
33793;DHT22;20105;48.764;9.178;2022-10-20T08:41:48;14.50;99.90
33793;DHT22;20105;48.764;9.178;2022-10-20T08:44:31;14.50;99.90
33793;DHT22;20105;48.764;9.178;2022-10-20T08:47:03;14.50;99.90
33793;DHT22;20105;48.764;9.178;2022-10-20T08:49:31;14.40;99.90
33793;DHT22;20105;48.764;9.178;2022-10-20T08:51:58;14.50;99.90
33793;DHT22;20105;48.764;9.178;2022-10-20T08:54:24;14.60;99.90
33793;DHT22;20105;48.764;9.178;2022-10-20T08:56:50;14.70;99.90
33793;DHT22;20105;48.764;9.178;2022-10-20T08:59:35;14.90;99.90
33793;DHT22;20105;48.764;9.178;2022-10-20T09:02:02;15.00;99.90
33793;DHT22;20105;48.764;9.178;2022-10-20T09:04:37;15.20;99.90
33793;DHT22;20105;48.764;9.178;2022-10-20T09:07:20;15.30;99.90
33793;DHT22;20105;48.764;9.178;2022-10-20T09:09:47;15.30;99.90
33793;DHT22;20105;48.764;9.178;2022-10-20T09:12:13;15.40;99.90
33793;DHT22;20105;48.764;9.178;2022-10-20T09:14:40;15.40;99.90
33793;DHT22;20105;48.764;9.178;2022-10-20T09:17:13;15.60;99.90
33793;DHT22;20105;48.764;9.178;2022-10-20T09:19:47;15.70;99.90
33793;DHT22;20105;48.764;9.178;2022-10-20T09:22:15;15.60;99.90
33793;DHT22;20105;48.764;9.178;2022-10-20T09:24:42;15.50;99.90
33793;DHT22;20105;48.764;9.178;2022-10-20T09:27:23;15.60;99.90
33793;DHT22;20105;48.764;9.178;2022-10-20T09:29:49;15.60;99.90
33793;DHT22;20105;48.764;9.178;2022-10-20T09:32:35;15.60;99.90
33793;DHT22;20105;48.764;9.178;2022-10-20T09:35:20;15.60;99.90
33793;DHT22;20105;48.764;9.178;2022-10-20T09:40:19;15.50;99.90
33793;DHT22;20105;48.764;9.178;2022-10-20T09:42:52;15.60;99.90
33793;DHT22;20105;48.764;9.178;2022-10-20T09:45:22;15.80;99.90
33793;DHT22;20105;48.764;9.178;2022-10-20T09:47:53;15.90;99.90
33793;DHT22;20105;48.764;9.178;2022-10-20T09:50:27;15.90;99.90
33793;DHT22;20105;48.764;9.178;2022-10-20T09:52:54;15.80;99.90
33793;DHT22;20105;48.764;9.178;2022-10-20T09:55:32;15.70;99.90
33793;DHT22;20105;48.764;9.178;2022-10-20T09:58:00;15.80;99.90
33793;DHT22;20105;48.764;9.178;2022-10-20T10:00:33;15.70;99.90
33793;DHT22;20105;48.764;9.178;2022-10-20T10:03:13;16.00;99.90
33793;DHT22;20105;48.764;9.178;2022-10-20T10:08:17;16.00;99.90
33793;DHT22;20105;48.764;9.178;2022-10-20T10:10:45;16.10;99.90
33793;DHT22;20105;48.764;9.178;2022-10-20T10:13:24;16.10;99.90
33793;DHT22;20105;48.764;9.178;2022-10-20T10:16:03;16.20;99.90
33793;DHT22;20105;48.764;9.178;2022-10-20T10:18:29;16.20;99.90
33793;DHT22;20105;48.764;9.178;2022-10-20T10:21:02;16.30;99.90
33793;DHT22;20105;48.764;9.178;2022-10-20T10:23:30;16.40;99.90
33793;DHT22;20105;48.764;9.178;2022-10-20T10:25:56;16.50;99.90
33793;DHT22;20105;48.764;9.178;2022-10-20T10:28:37;16.50;99.90
33793;DHT22;20105;48.764;9.178;2022-10-20T10:31:09;16.60;99.90
33793;DHT22;20105;48.764;9.178;2022-10-20T10:33:37;16.70;99.90
33793;DHT22;20105;48.764;9.178;2022-10-20T10:36:06;16.70;99.90
33793;DHT22;20105;48.764;9.178;2022-10-20T10:38:36;16.70;99.90
33793;DHT22;20105;48.764;9.178;2022-10-20T10:43:59;17.00;99.90
33793;DHT22;20105;48.764;9.178;2022-10-20T10:46:27;16.60;99.90
33793;DHT22;20105;48.764;9.178;2022-10-20T10:54:55;16.80;99.90
33793;DHT22;20105;48.764;9.178;2022-10-20T11:00:14;16.90;99.90
33793;DHT22;20105;48.764;9.178;2022-10-20T11:10:53;16.90;99.90
33793;DHT22;20105;48.764;9.178;2022-10-20T11:13:44;16.80;99.90
33793;DHT22;20105;48.764;9.178;2022-10-20T11:16:28;16.60;99.90
33793;DHT22;20105;48.764;9.178;2022-10-20T11:27:07;17.20;99.90
33793;DHT22;20105;48.764;9.178;2022-10-20T11:32:18;17.50;99.90
33793;DHT22;20105;48.764;9.178;2022-10-20T11:37:49;17.40;99.90
33793;DHT22;20105;48.764;9.178;2022-10-20T11:40:20;17.50;99.90
33793;DHT22;20105;48.764;9.178;2022-10-20T11:47:59;17.30;99.90
33793;DHT22;20105;48.764;9.178;2022-10-20T11:50:26;17.40;99.90
33793;DHT22;20105;48.764;9.178;2022-10-20T11:55:48;17.00;99.90
33793;DHT22;20105;48.764;9.178;2022-10-20T11:58:30;17.10;99.90
33793;DHT22;20105;48.764;9.178;2022-10-20T12:01:17;17.10;99.90
33793;DHT22;20105;48.764;9.178;2022-10-20T12:12:19;17.50;99.90
33793;DHT22;20105;48.764;9.178;2022-10-20T12:15:19;17.40;99.90
33793;DHT22;20105;48.764;9.178;2022-10-20T12:17:46;17.50;99.90
33793;DHT22;20105;48.764;9.178;2022-10-20T12:22:49;17.30;99.90
33793;DHT22;20105;48.764;9.178;2022-10-20T12:25:32;17.50;99.90
33793;DHT22;20105;48.764;9.178;2022-10-20T12:30:57;17.70;99.90
33793;DHT22;20105;48.764;9.178;2022-10-20T12:38:48;17.50;99.90
33793;DHT22;20105;48.764;9.178;2022-10-20T12:41:30;17.50;99.90
33793;DHT22;20105;48.764;9.178;2022-10-20T12:44:14;17.60;99.90
33793;DHT22;20105;48.764;9.178;2022-10-20T12:46:42;17.60;99.90
33793;DHT22;20105;48.764;9.178;2022-10-20T12:49:49;17.40;99.90
33793;DHT22;20105;48.764;9.178;2022-10-20T12:52:22;17.50;99.90
33793;DHT22;20105;48.764;9.178;2022-10-20T12:54:54;17.30;99.90
33793;DHT22;20105;48.764;9.178;2022-10-20T12:57:32;17.20;99.90
33793;DHT22;20105;48.764;9.178;2022-10-20T13:00:06;17.10;99.90
33793;DHT22;20105;48.764;9.178;2022-10-20T13:02:47;17.10;99.90
33793;DHT22;20105;48.764;9.178;2022-10-20T13:10:27;16.80;99.90
33793;DHT22;20105;48.764;9.178;2022-10-20T13:15:34;16.50;99.90
33793;DHT22;20105;48.764;9.178;2022-10-20T13:23:01;16.50;99.90
33793;DHT22;20105;48.764;9.178;2022-10-20T13:33:41;16.50;99.90
33793;DHT22;20105;48.764;9.178;2022-10-20T13:36:34;16.50;99.90
33793;DHT22;20105;48.764;9.178;2022-10-20T13:41:48;16.50;99.90
33793;DHT22;20105;48.764;9.178;2022-10-20T13:44:32;16.70;99.90
33793;DHT22;20105;48.764;9.178;2022-10-20T13:49:58;16.70;99.90
33793;DHT22;20105;48.764;9.178;2022-10-20T13:52:27;16.80;99.90
33793;DHT22;20105;48.764;9.178;2022-10-20T13:54:55;16.90;99.90
33793;DHT22;20105;48.764;9.178;2022-10-20T13:57:27;16.80;99.90
33793;DHT22;20105;48.764;9.178;2022-10-20T14:00:27;16.90;99.90
33793;DHT22;20105;48.764;9.178;2022-10-20T14:05:23;16.90;99.90
33793;DHT22;20105;48.764;9.178;2022-10-20T14:07:50;17.00;99.90
33793;DHT22;20105;48.764;9.178;2022-10-20T14:10:28;17.00;99.90
33793;DHT22;20105;48.764;9.178;2022-10-20T14:12:56;17.00;99.90
33793;DHT22;20105;48.764;9.178;2022-10-20T14:15:26;16.90;99.90
33793;DHT22;20105;48.764;9.178;2022-10-20T14:18:04;16.90;99.90
33793;DHT22;20105;48.764;9.178;2022-10-20T14:20:32;17.00;99.90
33793;DHT22;20105;48.764;9.178;2022-10-20T14:22:59;17.10;99.90
33793;DHT22;20105;48.764;9.178;2022-10-20T14:25:26;17.00;99.90
33793;DHT22;20105;48.764;9.178;2022-10-20T14:27:54;16.90;99.90
33793;DHT22;20105;48.764;9.178;2022-10-20T14:30:20;16.80;99.90
33793;DHT22;20105;48.764;9.178;2022-10-20T14:32:47;16.80;99.90
33793;DHT22;20105;48.764;9.178;2022-10-20T14:35:28;16.80;99.90
33793;DHT22;20105;48.764;9.178;2022-10-20T14:38:04;16.70;99.90
33793;DHT22;20105;48.764;9.178;2022-10-20T14:40:34;16.70;99.90
33793;DHT22;20105;48.764;9.178;2022-10-20T14:43:03;16.60;99.90
33793;DHT22;20105;48.764;9.178;2022-10-20T14:45:30;16.60;99.90
33793;DHT22;20105;48.764;9.178;2022-10-20T14:47:58;16.60;99.90
33793;DHT22;20105;48.764;9.178;2022-10-20T14:52:55;16.50;99.90
33793;DHT22;20105;48.764;9.178;2022-10-20T14:55:33;16.50;99.90
33793;DHT22;20105;48.764;9.178;2022-10-20T14:57:59;16.50;99.90
33793;DHT22;20105;48.764;9.178;2022-10-20T15:00:34;16.50;99.90
33793;DHT22;20105;48.764;9.178;2022-10-20T15:03:05;16.50;99.90
33793;DHT22;20105;48.764;9.178;2022-10-20T15:05:40;16.40;99.90
33793;DHT22;20105;48.764;9.178;2022-10-20T15:08:15;16.40;99.90
33793;DHT22;20105;48.764;9.178;2022-10-20T15:10:42;16.40;99.90
33793;DHT22;20105;48.764;9.178;2022-10-20T15:15:51;16.50;99.90
33793;DHT22;20105;48.764;9.178;2022-10-20T15:18:19;16.50;99.90
33793;DHT22;20105;48.764;9.178;2022-10-20T15:20:46;16.40;99.90
33793;DHT22;20105;48.764;9.178;2022-10-20T15:23:21;16.40;99.90
33793;DHT22;20105;48.764;9.178;2022-10-20T15:26:14;16.40;99.90
33793;DHT22;20105;48.764;9.178;2022-10-20T15:28:48;16.40;99.90
33793;DHT22;20105;48.764;9.178;2022-10-20T15:31:15;16.30;99.90
33793;DHT22;20105;48.764;9.178;2022-10-20T15:33:42;16.20;99.90
33793;DHT22;20105;48.764;9.178;2022-10-20T15:36:15;16.20;99.90
33793;DHT22;20105;48.764;9.178;2022-10-20T15:38:44;16.10;99.90
33793;DHT22;20105;48.764;9.178;2022-10-20T15:41:21;16.10;99.90
33793;DHT22;20105;48.764;9.178;2022-10-20T15:43:47;16.10;99.90
33793;DHT22;20105;48.764;9.178;2022-10-20T15:46:14;16.10;99.90
33793;DHT22;20105;48.764;9.178;2022-10-20T15:48:40;16.00;99.90
33793;DHT22;20105;48.764;9.178;2022-10-20T15:51:24;16.00;99.90
33793;DHT22;20105;48.764;9.178;2022-10-20T15:53:51;16.00;99.90
33793;DHT22;20105;48.764;9.178;2022-10-20T15:56:17;16.00;99.90
33793;DHT22;20105;48.764;9.178;2022-10-20T15:58:43;16.00;99.90
33793;DHT22;20105;48.764;9.178;2022-10-20T16:01:16;16.00;99.90
33793;DHT22;20105;48.764;9.178;2022-10-20T16:03:42;15.90;99.90
33793;DHT22;20105;48.764;9.178;2022-10-20T16:06:09;15.90;99.90
33793;DHT22;20105;48.764;9.178;2022-10-20T16:08:34;15.90;99.90
33793;DHT22;20105;48.764;9.178;2022-10-20T16:11:03;15.80;99.90
33793;DHT22;20105;48.764;9.178;2022-10-20T16:13:31;15.70;99.90
33793;DHT22;20105;48.764;9.178;2022-10-20T16:15:58;15.60;99.90
33793;DHT22;20105;48.764;9.178;2022-10-20T16:18:23;15.50;99.90
33793;DHT22;20105;48.764;9.178;2022-10-20T16:20:49;15.50;99.90
33793;DHT22;20105;48.764;9.178;2022-10-20T16:23:14;15.50;99.90
33793;DHT22;20105;48.764;9.178;2022-10-20T16:25:40;15.50;99.90
33793;DHT22;20105;48.764;9.178;2022-10-20T16:28:06;15.50;99.90
33793;DHT22;20105;48.764;9.178;2022-10-20T16:30:31;15.40;99.90
33793;DHT22;20105;48.764;9.178;2022-10-20T16:32:57;15.60;99.90
33793;DHT22;20105;48.764;9.178;2022-10-20T16:35:23;15.70;99.90
33793;DHT22;20105;48.764;9.178;2022-10-20T16:37:49;15.60;99.90
33793;DHT22;20105;48.764;9.178;2022-10-20T16:40:14;15.50;99.90
33793;DHT22;20105;48.764;9.178;2022-10-20T16:42:40;15.50;99.90
33793;DHT22;20105;48.764;9.178;2022-10-20T16:45:06;15.40;99.90
33793;DHT22;20105;48.764;9.178;2022-10-20T16:47:32;15.40;99.90
33793;DHT22;20105;48.764;9.178;2022-10-20T16:49:57;15.40;99.90
33793;DHT22;20105;48.764;9.178;2022-10-20T16:52:23;15.40;99.90
33793;DHT22;20105;48.764;9.178;2022-10-20T16:54:48;15.40;99.90
33793;DHT22;20105;48.764;9.178;2022-10-20T16:57:14;15.40;99.90
33793;DHT22;20105;48.764;9.178;2022-10-20T16:59:40;15.40;99.90
33793;DHT22;20105;48.764;9.178;2022-10-20T17:02:07;15.50;99.90
33793;DHT22;20105;48.764;9.178;2022-10-20T17:04:33;15.60;99.90
33793;DHT22;20105;48.764;9.178;2022-10-20T17:06:59;15.50;99.90
33793;DHT22;20105;48.764;9.178;2022-10-20T17:09:25;15.50;99.90
33793;DHT22;20105;48.764;9.178;2022-10-20T17:11:50;15.40;99.90
33793;DHT22;20105;48.764;9.178;2022-10-20T17:14:16;15.40;99.90
33793;DHT22;20105;48.764;9.178;2022-10-20T17:16:42;15.40;99.90
33793;DHT22;20105;48.764;9.178;2022-10-20T17:19:07;15.40;99.90
33793;DHT22;20105;48.764;9.178;2022-10-20T17:21:33;15.30;99.90
33793;DHT22;20105;48.764;9.178;2022-10-20T17:23:59;15.30;99.90
33793;DHT22;20105;48.764;9.178;2022-10-20T17:26:27;15.30;99.90
33793;DHT22;20105;48.764;9.178;2022-10-20T17:28:59;15.30;99.90
33793;DHT22;20105;48.764;9.178;2022-10-20T17:31:25;15.30;99.90
33793;DHT22;20105;48.764;9.178;2022-10-20T17:33:51;15.30;99.90
33793;DHT22;20105;48.764;9.178;2022-10-20T17:36:17;15.20;99.90
33793;DHT22;20105;48.764;9.178;2022-10-20T17:38:44;15.20;99.90